sensor_id;sensor_type;location;lat;lon;timestamp;P1;durP1;ratioP1;P2;durP2;ratioP2
30378;SDS011;17168;49.164;9.060;2024-01-07T00:01:56;12.05;;;5.93;;
30378;SDS011;17168;49.164;9.060;2024-01-07T00:04:28;11.23;;;5.95;;
30378;SDS011;17168;49.164;9.060;2024-01-07T00:07:00;8.15;;;4.95;;
30378;SDS011;17168;49.164;9.060;2024-01-07T00:09:33;7.60;;;4.78;;
30378;SDS011;17168;49.164;9.060;2024-01-07T00:12:06;8.13;;;5.05;;
30378;SDS011;17168;49.164;9.060;2024-01-07T00:14:41;8.23;;;4.25;;
30378;SDS011;17168;49.164;9.060;2024-01-07T00:17:13;9.20;;;5.07;;
30378;SDS011;17168;49.164;9.060;2024-01-07T00:19:45;9.30;;;5.07;;
30378;SDS011;17168;49.164;9.060;2024-01-07T00:22:18;7.75;;;4.32;;
30378;SDS011;17168;49.164;9.060;2024-01-07T00:24:50;7.43;;;4.55;;
30378;SDS011;17168;49.164;9.060;2024-01-07T00:27:22;9.25;;;4.88;;
30378;SDS011;17168;49.164;9.060;2024-01-07T00:29:57;7.78;;;4.13;;
30378;SDS011;17168;49.164;9.060;2024-01-07T00:32:30;9.20;;;5.60;;
30378;SDS011;17168;49.164;9.060;2024-01-07T00:35:02;10.32;;;5.65;;
30378;SDS011;17168;49.164;9.060;2024-01-07T00:37:35;8.02;;;4.68;;
30378;SDS011;17168;49.164;9.060;2024-01-07T00:40:08;10.07;;;5.70;;
30378;SDS011;17168;49.164;9.060;2024-01-07T00:42:41;9.20;;;4.65;;
30378;SDS011;17168;49.164;9.060;2024-01-07T00:45:16;8.13;;;4.88;;
30378;SDS011;17168;49.164;9.060;2024-01-07T00:47:48;9.15;;;4.38;;
30378;SDS011;17168;49.164;9.060;2024-01-07T00:50:20;11.10;;;5.55;;
30378;SDS011;17168;49.164;9.060;2024-01-07T00:52:52;7.68;;;4.40;;
30378;SDS011;17168;49.164;9.060;2024-01-07T00:55:25;10.98;;;5.68;;
30378;SDS011;17168;49.164;9.060;2024-01-07T01:01:20;9.43;;;4.65;;
30378;SDS011;17168;49.164;9.060;2024-01-07T01:03:52;10.98;;;5.63;;
30378;SDS011;17168;49.164;9.060;2024-01-07T01:06:25;10.32;;;4.93;;
30378;SDS011;17168;49.164;9.060;2024-01-07T01:08:57;12.80;;;5.97;;
30378;SDS011;17168;49.164;9.060;2024-01-07T01:11:29;10.02;;;5.35;;
30378;SDS011;17168;49.164;9.060;2024-01-07T01:14:01;11.93;;;6.05;;
30378;SDS011;17168;49.164;9.060;2024-01-07T01:16:36;8.85;;;5.22;;
30378;SDS011;17168;49.164;9.060;2024-01-07T01:19:08;10.77;;;5.25;;
30378;SDS011;17168;49.164;9.060;2024-01-07T01:21:41;11.63;;;6.28;;
30378;SDS011;17168;49.164;9.060;2024-01-07T01:24:13;12.93;;;6.30;;
30378;SDS011;17168;49.164;9.060;2024-01-07T01:26:45;11.45;;;6.03;;
30378;SDS011;17168;49.164;9.060;2024-01-07T01:29:17;11.25;;;6.10;;
30378;SDS011;17168;49.164;9.060;2024-01-07T01:31:52;12.02;;;6.47;;
30378;SDS011;17168;49.164;9.060;2024-01-07T01:34:25;14.23;;;6.85;;
30378;SDS011;17168;49.164;9.060;2024-01-07T01:36:57;12.25;;;6.43;;
30378;SDS011;17168;49.164;9.060;2024-01-07T01:39:29;12.88;;;6.20;;
30378;SDS011;17168;49.164;9.060;2024-01-07T01:42:01;15.20;;;6.68;;
30378;SDS011;17168;49.164;9.060;2024-01-07T01:44:34;12.40;;;7.07;;
30378;SDS011;17168;49.164;9.060;2024-01-07T01:47:09;14.55;;;6.93;;
30378;SDS011;17168;49.164;9.060;2024-01-07T01:49:43;13.68;;;7.32;;
30378;SDS011;17168;49.164;9.060;2024-01-07T01:52:15;14.20;;;7.50;;
30378;SDS011;17168;49.164;9.060;2024-01-07T01:54:48;11.88;;;6.43;;
30378;SDS011;17168;49.164;9.060;2024-01-07T01:57:21;13.32;;;6.95;;
30378;SDS011;17168;49.164;9.060;2024-01-07T01:59:56;13.82;;;7.05;;
30378;SDS011;17168;49.164;9.060;2024-01-07T02:02:36;14.10;;;7.13;;
30378;SDS011;17168;49.164;9.060;2024-01-07T02:05:08;12.10;;;6.05;;
30378;SDS011;17168;49.164;9.060;2024-01-07T02:07:41;11.77;;;6.50;;
30378;SDS011;17168;49.164;9.060;2024-01-07T02:10:13;11.68;;;6.25;;
30378;SDS011;17168;49.164;9.060;2024-01-07T02:12:46;16.50;;;6.80;;
30378;SDS011;17168;49.164;9.060;2024-01-07T02:15:18;13.50;;;7.13;;
30378;SDS011;17168;49.164;9.060;2024-01-07T02:17:54;12.20;;;5.50;;
30378;SDS011;17168;49.164;9.060;2024-01-07T02:20:26;15.35;;;6.57;;
30378;SDS011;17168;49.164;9.060;2024-01-07T02:22:58;15.27;;;7.07;;
30378;SDS011;17168;49.164;9.060;2024-01-07T02:25:37;14.82;;;6.35;;
30378;SDS011;17168;49.164;9.060;2024-01-07T02:28:09;13.10;;;6.60;;
30378;SDS011;17168;49.164;9.060;2024-01-07T02:30:42;13.23;;;6.53;;
30378;SDS011;17168;49.164;9.060;2024-01-07T02:33:14;14.18;;;6.85;;
30378;SDS011;17168;49.164;9.060;2024-01-07T02:35:47;15.00;;;7.32;;
30378;SDS011;17168;49.164;9.060;2024-01-07T02:38:19;11.23;;;5.63;;
30378;SDS011;17168;49.164;9.060;2024-01-07T02:40:54;15.30;;;6.65;;
30378;SDS011;17168;49.164;9.060;2024-01-07T02:43:26;13.13;;;7.03;;
30378;SDS011;17168;49.164;9.060;2024-01-07T02:45:59;14.15;;;7.22;;
30378;SDS011;17168;49.164;9.060;2024-01-07T02:48:31;12.50;;;6.78;;
30378;SDS011;17168;49.164;9.060;2024-01-07T02:51:03;13.30;;;5.95;;
30378;SDS011;17168;49.164;9.060;2024-01-07T02:53:37;14.13;;;6.95;;
30378;SDS011;17168;49.164;9.060;2024-01-07T02:56:11;11.88;;;6.35;;
30378;SDS011;17168;49.164;9.060;2024-01-07T02:58:44;15.32;;;6.68;;
30378;SDS011;17168;49.164;9.060;2024-01-07T03:01:16;12.15;;;5.90;;
30378;SDS011;17168;49.164;9.060;2024-01-07T03:03:48;11.75;;;5.65;;
30378;SDS011;17168;49.164;9.060;2024-01-07T03:06:21;14.73;;;6.60;;
30378;SDS011;17168;49.164;9.060;2024-01-07T03:08:53;13.68;;;6.15;;
30378;SDS011;17168;49.164;9.060;2024-01-07T03:11:28;12.45;;;5.97;;
30378;SDS011;17168;49.164;9.060;2024-01-07T03:14:01;13.55;;;5.85;;
30378;SDS011;17168;49.164;9.060;2024-01-07T03:16:33;11.32;;;6.15;;
30378;SDS011;17168;49.164;9.060;2024-01-07T03:19:05;12.98;;;5.55;;
30378;SDS011;17168;49.164;9.060;2024-01-07T03:21:39;12.13;;;5.60;;
30378;SDS011;17168;49.164;9.060;2024-01-07T03:24:11;12.13;;;6.13;;
30378;SDS011;17168;49.164;9.060;2024-01-07T03:26:46;11.95;;;5.93;;
30378;SDS011;17168;49.164;9.060;2024-01-07T03:29:18;11.85;;;5.53;;
30378;SDS011;17168;49.164;9.060;2024-01-07T03:31:50;12.57;;;6.13;;
30378;SDS011;17168;49.164;9.060;2024-01-07T03:34:24;13.90;;;6.55;;
30378;SDS011;17168;49.164;9.060;2024-01-07T03:36:56;15.02;;;6.60;;
30378;SDS011;17168;49.164;9.060;2024-01-07T03:39:31;10.50;;;5.40;;
30378;SDS011;17168;49.164;9.060;2024-01-07T03:42:07;10.90;;;5.32;;
30378;SDS011;17168;49.164;9.060;2024-01-07T03:44:43;12.30;;;5.80;;
30378;SDS011;17168;49.164;9.060;2024-01-07T03:47:15;10.70;;;4.85;;
30378;SDS011;17168;49.164;9.060;2024-01-07T03:49:48;12.88;;;5.38;;
30378;SDS011;17168;49.164;9.060;2024-01-07T03:52:20;12.82;;;4.95;;
30378;SDS011;17168;49.164;9.060;2024-01-07T03:54:54;10.45;;;4.85;;
30378;SDS011;17168;49.164;9.060;2024-01-07T03:57:29;9.57;;;4.32;;
30378;SDS011;17168;49.164;9.060;2024-01-07T04:00:01;10.57;;;4.35;;
30378;SDS011;17168;49.164;9.060;2024-01-07T04:02:35;9.15;;;4.57;;
30378;SDS011;17168;49.164;9.060;2024-01-07T04:05:08;9.27;;;4.22;;
30378;SDS011;17168;49.164;9.060;2024-01-07T04:07:41;9.65;;;4.50;;
30378;SDS011;17168;49.164;9.060;2024-01-07T04:10:13;8.88;;;3.83;;
30378;SDS011;17168;49.164;9.060;2024-01-07T04:12:50;12.25;;;4.78;;
30378;SDS011;17168;49.164;9.060;2024-01-07T04:15:24;11.40;;;4.97;;
30378;SDS011;17168;49.164;9.060;2024-01-07T04:17:56;10.18;;;5.03;;
30378;SDS011;17168;49.164;9.060;2024-01-07T04:20:28;8.73;;;4.53;;
30378;SDS011;17168;49.164;9.060;2024-01-07T04:23:01;9.43;;;4.45;;
30378;SDS011;17168;49.164;9.060;2024-01-07T04:25:33;9.88;;;4.70;;
30378;SDS011;17168;49.164;9.060;2024-01-07T04:28:08;11.15;;;4.97;;
30378;SDS011;17168;49.164;9.060;2024-01-07T04:30:41;12.48;;;5.38;;
30378;SDS011;17168;49.164;9.060;2024-01-07T04:33:13;8.70;;;4.07;;
30378;SDS011;17168;49.164;9.060;2024-01-07T04:35:46;9.93;;;4.93;;
30378;SDS011;17168;49.164;9.060;2024-01-07T04:38:18;10.73;;;4.97;;
30378;SDS011;17168;49.164;9.060;2024-01-07T04:40:50;10.40;;;4.45;;
30378;SDS011;17168;49.164;9.060;2024-01-07T04:43:25;7.75;;;4.22;;
30378;SDS011;17168;49.164;9.060;2024-01-07T04:45:58;12.60;;;5.60;;
30378;SDS011;17168;49.164;9.060;2024-01-07T04:48:30;11.68;;;4.47;;
30378;SDS011;17168;49.164;9.060;2024-01-07T04:51:03;10.07;;;4.82;;
30378;SDS011;17168;49.164;9.060;2024-01-07T04:53:35;10.43;;;4.90;;
30378;SDS011;17168;49.164;9.060;2024-01-07T04:56:07;8.23;;;3.95;;
30378;SDS011;17168;49.164;9.060;2024-01-07T04:58:42;8.98;;;3.95;;
30378;SDS011;17168;49.164;9.060;2024-01-07T05:01:14;10.68;;;4.55;;
30378;SDS011;17168;49.164;9.060;2024-01-07T05:03:47;9.50;;;4.43;;
30378;SDS011;17168;49.164;9.060;2024-01-07T05:06:19;10.80;;;4.70;;
30378;SDS011;17168;49.164;9.060;2024-01-07T05:08:52;9.88;;;4.55;;
30378;SDS011;17168;49.164;9.060;2024-01-07T05:11:24;8.38;;;4.38;;
30378;SDS011;17168;49.164;9.060;2024-01-07T05:13:59;9.60;;;4.53;;
30378;SDS011;17168;49.164;9.060;2024-01-07T05:16:31;12.00;;;5.10;;
30378;SDS011;17168;49.164;9.060;2024-01-07T05:19:03;10.70;;;4.32;;
30378;SDS011;17168;49.164;9.060;2024-01-07T05:21:36;10.35;;;4.78;;
30378;SDS011;17168;49.164;9.060;2024-01-07T05:24:08;9.43;;;4.32;;
30378;SDS011;17168;49.164;9.060;2024-01-07T05:26:41;10.48;;;4.60;;
30378;SDS011;17168;49.164;9.060;2024-01-07T05:29:18;11.30;;;4.45;;
30378;SDS011;17168;49.164;9.060;2024-01-07T05:31:50;9.40;;;4.78;;
30378;SDS011;17168;49.164;9.060;2024-01-07T05:34:22;8.65;;;4.55;;
30378;SDS011;17168;49.164;9.060;2024-01-07T05:36:55;9.45;;;4.47;;
30378;SDS011;17168;49.164;9.060;2024-01-07T05:39:27;8.50;;;4.35;;
30378;SDS011;17168;49.164;9.060;2024-01-07T05:41:59;11.57;;;5.35;;
30378;SDS011;17168;49.164;9.060;2024-01-07T05:44:34;10.35;;;5.10;;
30378;SDS011;17168;49.164;9.060;2024-01-07T05:47:06;9.50;;;4.93;;
30378;SDS011;17168;49.164;9.060;2024-01-07T05:49:39;9.48;;;4.93;;
30378;SDS011;17168;49.164;9.060;2024-01-07T05:52:11;10.82;;;4.95;;
30378;SDS011;17168;49.164;9.060;2024-01-07T05:54:43;10.00;;;4.78;;
30378;SDS011;17168;49.164;9.060;2024-01-07T05:57:16;12.60;;;5.13;;
30378;SDS011;17168;49.164;9.060;2024-01-07T05:59:51;9.65;;;4.63;;
30378;SDS011;17168;49.164;9.060;2024-01-07T06:02:25;10.52;;;5.15;;
30378;SDS011;17168;49.164;9.060;2024-01-07T06:04:57;9.02;;;4.70;;
30378;SDS011;17168;49.164;9.060;2024-01-07T06:07:30;9.95;;;5.00;;
30378;SDS011;17168;49.164;9.060;2024-01-07T06:10:02;10.27;;;4.70;;
30378;SDS011;17168;49.164;9.060;2024-01-07T06:12:35;10.48;;;5.82;;
30378;SDS011;17168;49.164;9.060;2024-01-07T06:15:11;10.15;;;4.80;;
30378;SDS011;17168;49.164;9.060;2024-01-07T06:17:43;10.32;;;5.35;;
30378;SDS011;17168;49.164;9.060;2024-01-07T06:20:17;9.52;;;5.30;;
30378;SDS011;17168;49.164;9.060;2024-01-07T06:22:50;9.20;;;4.90;;
30378;SDS011;17168;49.164;9.060;2024-01-07T06:25:22;7.97;;;4.68;;
30378;SDS011;17168;49.164;9.060;2024-01-07T06:27:57;7.78;;;5.07;;
30378;SDS011;17168;49.164;9.060;2024-01-07T06:30:32;9.48;;;4.38;;
30378;SDS011;17168;49.164;9.060;2024-01-07T06:33:05;8.30;;;4.65;;
30378;SDS011;17168;49.164;9.060;2024-01-07T06:35:38;8.60;;;5.28;;
30378;SDS011;17168;49.164;9.060;2024-01-07T06:38:10;8.55;;;4.85;;
30378;SDS011;17168;49.164;9.060;2024-01-07T06:40:42;10.57;;;5.32;;
30378;SDS011;17168;49.164;9.060;2024-01-07T06:43:14;7.50;;;4.32;;
30378;SDS011;17168;49.164;9.060;2024-01-07T06:45:49;9.75;;;5.30;;
30378;SDS011;17168;49.164;9.060;2024-01-07T06:48:22;10.00;;;5.25;;
30378;SDS011;17168;49.164;9.060;2024-01-07T06:50:54;8.73;;;4.60;;
30378;SDS011;17168;49.164;9.060;2024-01-07T06:53:26;9.77;;;4.60;;
30378;SDS011;17168;49.164;9.060;2024-01-07T06:55:58;6.97;;;4.68;;
30378;SDS011;17168;49.164;9.060;2024-01-07T06:58:30;9.60;;;5.35;;
30378;SDS011;17168;49.164;9.060;2024-01-07T07:01:08;8.80;;;4.50;;
30378;SDS011;17168;49.164;9.060;2024-01-07T07:03:41;8.68;;;4.57;;
30378;SDS011;17168;49.164;9.060;2024-01-07T07:06:13;8.10;;;5.00;;
30378;SDS011;17168;49.164;9.060;2024-01-07T07:08:46;8.38;;;5.00;;
30378;SDS011;17168;49.164;9.060;2024-01-07T07:11:18;9.20;;;5.00;;
30378;SDS011;17168;49.164;9.060;2024-01-07T07:13:53;8.18;;;4.72;;
30378;SDS011;17168;49.164;9.060;2024-01-07T07:16:28;7.85;;;4.13;;
30378;SDS011;17168;49.164;9.060;2024-01-07T07:19:00;9.70;;;4.85;;
30378;SDS011;17168;49.164;9.060;2024-01-07T07:21:34;8.73;;;4.68;;
30378;SDS011;17168;49.164;9.060;2024-01-07T07:24:06;7.45;;;4.38;;
30378;SDS011;17168;49.164;9.060;2024-01-07T07:26:38;8.95;;;4.60;;
30378;SDS011;17168;49.164;9.060;2024-01-07T07:29:12;9.10;;;4.57;;
30378;SDS011;17168;49.164;9.060;2024-01-07T07:31:47;7.85;;;3.88;;
30378;SDS011;17168;49.164;9.060;2024-01-07T07:34:20;9.10;;;4.22;;
30378;SDS011;17168;49.164;9.060;2024-01-07T07:36:52;8.35;;;4.38;;
30378;SDS011;17168;49.164;9.060;2024-01-07T07:39:25;9.07;;;4.72;;
30378;SDS011;17168;49.164;9.060;2024-01-07T07:41:58;8.48;;;4.03;;
30378;SDS011;17168;49.164;9.060;2024-01-07T07:44:30;7.78;;;4.13;;
30378;SDS011;17168;49.164;9.060;2024-01-07T07:47:05;7.28;;;4.15;;
30378;SDS011;17168;49.164;9.060;2024-01-07T07:49:37;7.60;;;4.50;;
30378;SDS011;17168;49.164;9.060;2024-01-07T07:52:12;5.60;;;3.28;;
30378;SDS011;17168;49.164;9.060;2024-01-07T07:54:46;8.07;;;4.10;;
30378;SDS011;17168;49.164;9.060;2024-01-07T07:57:18;5.80;;;3.70;;
30378;SDS011;17168;49.164;9.060;2024-01-07T07:59:52;9.13;;;4.60;;
30378;SDS011;17168;49.164;9.060;2024-01-07T08:02:27;7.35;;;4.10;;
30378;SDS011;17168;49.164;9.060;2024-01-07T08:04:59;6.93;;;3.70;;
30378;SDS011;17168;49.164;9.060;2024-01-07T08:07:32;7.55;;;4.13;;
30378;SDS011;17168;49.164;9.060;2024-01-07T08:10:05;6.72;;;3.47;;
30378;SDS011;17168;49.164;9.060;2024-01-07T08:12:39;6.88;;;3.97;;
30378;SDS011;17168;49.164;9.060;2024-01-07T08:15:14;5.82;;;3.50;;
30378;SDS011;17168;49.164;9.060;2024-01-07T08:17:49;6.97;;;4.10;;
30378;SDS011;17168;49.164;9.060;2024-01-07T08:20:23;7.38;;;4.30;;
30378;SDS011;17168;49.164;9.060;2024-01-07T08:22:55;5.90;;;3.03;;
30378;SDS011;17168;49.164;9.060;2024-01-07T08:25:27;7.28;;;4.25;;
30378;SDS011;17168;49.164;9.060;2024-01-07T08:28:00;6.93;;;3.55;;
30378;SDS011;17168;49.164;9.060;2024-01-07T08:30:32;6.20;;;2.90;;
30378;SDS011;17168;49.164;9.060;2024-01-07T08:33:07;6.47;;;4.00;;
30378;SDS011;17168;49.164;9.060;2024-01-07T08:35:39;6.03;;;2.85;;
30378;SDS011;17168;49.164;9.060;2024-01-07T08:38:12;6.63;;;3.47;;
30378;SDS011;17168;49.164;9.060;2024-01-07T08:40:44;5.78;;;2.97;;
30378;SDS011;17168;49.164;9.060;2024-01-07T08:43:16;5.97;;;3.42;;
30378;SDS011;17168;49.164;9.060;2024-01-07T08:45:49;6.03;;;3.45;;
30378;SDS011;17168;49.164;9.060;2024-01-07T08:48:24;7.28;;;3.25;;
30378;SDS011;17168;49.164;9.060;2024-01-07T08:50:56;6.60;;;2.92;;
30378;SDS011;17168;49.164;9.060;2024-01-07T08:53:28;5.88;;;3.03;;
30378;SDS011;17168;49.164;9.060;2024-01-07T08:56:01;5.78;;;3.00;;
30378;SDS011;17168;49.164;9.060;2024-01-07T08:58:33;9.55;;;4.32;;
30378;SDS011;17168;49.164;9.060;2024-01-07T09:01:05;9.05;;;4.05;;
30378;SDS011;17168;49.164;9.060;2024-01-07T09:03:40;5.43;;;2.88;;
30378;SDS011;17168;49.164;9.060;2024-01-07T09:06:13;7.22;;;3.95;;
30378;SDS011;17168;49.164;9.060;2024-01-07T09:08:46;5.95;;;2.92;;
30378;SDS011;17168;49.164;9.060;2024-01-07T09:11:18;5.78;;;2.70;;
30378;SDS011;17168;49.164;9.060;2024-01-07T09:13:50;5.20;;;2.30;;
30378;SDS011;17168;49.164;9.060;2024-01-07T09:16:23;5.28;;;2.55;;
30378;SDS011;17168;49.164;9.060;2024-01-07T09:18:58;4.68;;;2.40;;
30378;SDS011;17168;49.164;9.060;2024-01-07T09:21:30;4.32;;;2.17;;
30378;SDS011;17168;49.164;9.060;2024-01-07T09:24:03;5.07;;;2.33;;
30378;SDS011;17168;49.164;9.060;2024-01-07T09:26:35;4.60;;;2.15;;
30378;SDS011;17168;49.164;9.060;2024-01-07T09:29:09;3.97;;;2.28;;
30378;SDS011;17168;49.164;9.060;2024-01-07T09:31:42;4.70;;;2.80;;
30378;SDS011;17168;49.164;9.060;2024-01-07T09:34:17;5.22;;;3.05;;
30378;SDS011;17168;49.164;9.060;2024-01-07T09:36:49;4.32;;;2.45;;
30378;SDS011;17168;49.164;9.060;2024-01-07T09:39:22;6.68;;;3.40;;
30378;SDS011;17168;49.164;9.060;2024-01-07T09:41:54;5.15;;;2.83;;
30378;SDS011;17168;49.164;9.060;2024-01-07T09:44:26;3.75;;;1.80;;
30378;SDS011;17168;49.164;9.060;2024-01-07T09:46:58;4.28;;;2.00;;
30378;SDS011;17168;49.164;9.060;2024-01-07T09:49:34;3.15;;;1.42;;
30378;SDS011;17168;49.164;9.060;2024-01-07T09:52:07;3.60;;;2.05;;
30378;SDS011;17168;49.164;9.060;2024-01-07T09:54:40;4.28;;;2.10;;
30378;SDS011;17168;49.164;9.060;2024-01-07T09:57:13;4.65;;;2.80;;
30378;SDS011;17168;49.164;9.060;2024-01-07T09:59:45;5.18;;;2.10;;
30378;SDS011;17168;49.164;9.060;2024-01-07T10:02:18;5.80;;;2.70;;
30378;SDS011;17168;49.164;9.060;2024-01-07T10:04:55;6.07;;;2.75;;
30378;SDS011;17168;49.164;9.060;2024-01-07T10:07:27;4.88;;;2.85;;
30378;SDS011;17168;49.164;9.060;2024-01-07T10:10:01;5.70;;;3.03;;
30378;SDS011;17168;49.164;9.060;2024-01-07T10:12:43;4.57;;;2.30;;
30378;SDS011;17168;49.164;9.060;2024-01-07T10:15:17;4.82;;;2.80;;
30378;SDS011;17168;49.164;9.060;2024-01-07T10:17:50;4.60;;;2.33;;
30378;SDS011;17168;49.164;9.060;2024-01-07T10:20:29;5.05;;;2.72;;
30378;SDS011;17168;49.164;9.060;2024-01-07T10:23:03;3.88;;;1.92;;
30378;SDS011;17168;49.164;9.060;2024-01-07T10:25:36;5.22;;;2.60;;
30378;SDS011;17168;49.164;9.060;2024-01-07T10:28:09;4.15;;;2.00;;
30378;SDS011;17168;49.164;9.060;2024-01-07T10:30:45;3.83;;;2.10;;
30378;SDS011;17168;49.164;9.060;2024-01-07T10:33:20;3.55;;;1.80;;
30378;SDS011;17168;49.164;9.060;2024-01-07T10:35:59;3.85;;;2.28;;
30378;SDS011;17168;49.164;9.060;2024-01-07T10:38:35;4.07;;;1.75;;
30378;SDS011;17168;49.164;9.060;2024-01-07T10:41:11;4.93;;;2.83;;
30378;SDS011;17168;49.164;9.060;2024-01-07T10:43:44;4.40;;;2.38;;
30378;SDS011;17168;49.164;9.060;2024-01-07T10:46:18;4.00;;;2.45;;
30378;SDS011;17168;49.164;9.060;2024-01-07T10:48:53;5.68;;;3.53;;
30378;SDS011;17168;49.164;9.060;2024-01-07T10:51:30;4.82;;;2.63;;
30378;SDS011;17168;49.164;9.060;2024-01-07T10:54:05;4.00;;;2.10;;
30378;SDS011;17168;49.164;9.060;2024-01-07T10:56:42;3.70;;;2.28;;
30378;SDS011;17168;49.164;9.060;2024-01-07T10:59:20;4.32;;;2.50;;
30378;SDS011;17168;49.164;9.060;2024-01-07T11:01:54;4.88;;;2.58;;
30378;SDS011;17168;49.164;9.060;2024-01-07T11:04:34;5.88;;;3.22;;
30378;SDS011;17168;49.164;9.060;2024-01-07T11:07:18;5.72;;;2.80;;
30378;SDS011;17168;49.164;9.060;2024-01-07T11:09:56;6.53;;;3.47;;
30378;SDS011;17168;49.164;9.060;2024-01-07T11:12:36;5.40;;;3.00;;
30378;SDS011;17168;49.164;9.060;2024-01-07T11:15:09;4.85;;;2.47;;
30378;SDS011;17168;49.164;9.060;2024-01-07T11:17:41;4.60;;;2.67;;
30378;SDS011;17168;49.164;9.060;2024-01-07T11:20:20;4.13;;;2.22;;
30378;SDS011;17168;49.164;9.060;2024-01-07T11:22:59;7.38;;;2.88;;
30378;SDS011;17168;49.164;9.060;2024-01-07T11:25:58;5.13;;;2.28;;
30378;SDS011;17168;49.164;9.060;2024-01-07T11:28:47;5.20;;;2.35;;
30378;SDS011;17168;49.164;9.060;2024-01-07T11:31:25;15.60;;;7.57;;
30378;SDS011;17168;49.164;9.060;2024-01-07T11:37:10;9.68;;;4.72;;
30378;SDS011;17168;49.164;9.060;2024-01-07T11:39:48;8.60;;;4.68;;
30378;SDS011;17168;49.164;9.060;2024-01-07T11:42:23;5.93;;;3.50;;
30378;SDS011;17168;49.164;9.060;2024-01-07T11:44:55;6.90;;;3.03;;
30378;SDS011;17168;49.164;9.060;2024-01-07T11:47:28;7.03;;;3.08;;
30378;SDS011;17168;49.164;9.060;2024-01-07T11:50:00;6.47;;;3.25;;
30378;SDS011;17168;49.164;9.060;2024-01-07T11:52:32;5.63;;;3.22;;
30378;SDS011;17168;49.164;9.060;2024-01-07T11:55:10;6.78;;;3.60;;
30378;SDS011;17168;49.164;9.060;2024-01-07T11:57:43;5.13;;;4.60;;
30378;SDS011;17168;49.164;9.060;2024-01-07T12:00:16;6.13;;;3.00;;
30378;SDS011;17168;49.164;9.060;2024-01-07T12:02:48;5.47;;;3.60;;
30378;SDS011;17168;49.164;9.060;2024-01-07T12:05:21;5.97;;;3.80;;
30378;SDS011;17168;49.164;9.060;2024-01-07T12:07:53;6.80;;;3.15;;
30378;SDS011;17168;49.164;9.060;2024-01-07T12:10:28;6.82;;;3.65;;
30378;SDS011;17168;49.164;9.060;2024-01-07T12:13:00;6.38;;;3.50;;
30378;SDS011;17168;49.164;9.060;2024-01-07T12:15:35;6.05;;;3.60;;
30378;SDS011;17168;49.164;9.060;2024-01-07T12:18:07;5.38;;;3.10;;
30378;SDS011;17168;49.164;9.060;2024-01-07T12:20:41;7.00;;;4.05;;
30378;SDS011;17168;49.164;9.060;2024-01-07T12:23:13;6.53;;;3.67;;
30378;SDS011;17168;49.164;9.060;2024-01-07T12:25:48;5.50;;;3.38;;
30378;SDS011;17168;49.164;9.060;2024-01-07T12:28:20;6.90;;;3.97;;
30378;SDS011;17168;49.164;9.060;2024-01-07T12:30:53;6.93;;;3.60;;
30378;SDS011;17168;49.164;9.060;2024-01-07T12:33:25;6.93;;;3.80;;
30378;SDS011;17168;49.164;9.060;2024-01-07T12:35:58;7.03;;;3.70;;
30378;SDS011;17168;49.164;9.060;2024-01-07T12:38:32;7.60;;;4.45;;
30378;SDS011;17168;49.164;9.060;2024-01-07T12:41:06;7.85;;;4.25;;
30378;SDS011;17168;49.164;9.060;2024-01-07T12:43:39;7.75;;;4.00;;
30378;SDS011;17168;49.164;9.060;2024-01-07T12:46:11;8.98;;;4.13;;
30378;SDS011;17168;49.164;9.060;2024-01-07T12:48:43;7.88;;;4.18;;
30378;SDS011;17168;49.164;9.060;2024-01-07T12:51:16;7.80;;;4.13;;
30378;SDS011;17168;49.164;9.060;2024-01-07T12:53:52;11.70;;;5.60;;
30378;SDS011;17168;49.164;9.060;2024-01-07T12:56:27;7.07;;;4.22;;
30378;SDS011;17168;49.164;9.060;2024-01-07T12:59:00;8.27;;;4.50;;
30378;SDS011;17168;49.164;9.060;2024-01-07T13:01:32;7.72;;;4.18;;
30378;SDS011;17168;49.164;9.060;2024-01-07T13:04:04;7.32;;;3.65;;
30378;SDS011;17168;49.164;9.060;2024-01-07T13:06:37;7.25;;;4.13;;
30378;SDS011;17168;49.164;9.060;2024-01-07T13:09:09;7.35;;;4.55;;
30378;SDS011;17168;49.164;9.060;2024-01-07T13:11:44;8.32;;;4.32;;
30378;SDS011;17168;49.164;9.060;2024-01-07T13:14:17;9.05;;;5.20;;
30378;SDS011;17168;49.164;9.060;2024-01-07T13:16:49;7.85;;;4.18;;
30378;SDS011;17168;49.164;9.060;2024-01-07T13:19:21;8.35;;;3.97;;
30378;SDS011;17168;49.164;9.060;2024-01-07T13:21:53;6.40;;;3.80;;
30378;SDS011;17168;49.164;9.060;2024-01-07T13:24:31;8.55;;;4.13;;
30378;SDS011;17168;49.164;9.060;2024-01-07T13:27:06;7.47;;;3.83;;
30378;SDS011;17168;49.164;9.060;2024-01-07T13:29:39;6.50;;;3.78;;
30378;SDS011;17168;49.164;9.060;2024-01-07T13:32:12;7.75;;;3.92;;
30378;SDS011;17168;49.164;9.060;2024-01-07T13:34:51;7.45;;;4.13;;
30378;SDS011;17168;49.164;9.060;2024-01-07T13:37:23;6.60;;;4.07;;
30378;SDS011;17168;49.164;9.060;2024-01-07T13:39:55;6.95;;;3.72;;
30378;SDS011;17168;49.164;9.060;2024-01-07T13:42:31;6.78;;;3.92;;
30378;SDS011;17168;49.164;9.060;2024-01-07T13:45:03;9.15;;;4.72;;
30378;SDS011;17168;49.164;9.060;2024-01-07T13:47:37;5.85;;;3.58;;
30378;SDS011;17168;49.164;9.060;2024-01-07T13:50:09;9.50;;;4.60;;
30378;SDS011;17168;49.164;9.060;2024-01-07T13:52:42;6.35;;;4.35;;
30378;SDS011;17168;49.164;9.060;2024-01-07T13:55:14;8.55;;;3.92;;
30378;SDS011;17168;49.164;9.060;2024-01-07T13:57:49;8.00;;;4.63;;
30378;SDS011;17168;49.164;9.060;2024-01-07T14:00:22;8.80;;;4.65;;
30378;SDS011;17168;49.164;9.060;2024-01-07T14:02:54;8.07;;;4.60;;
30378;SDS011;17168;49.164;9.060;2024-01-07T14:05:26;6.82;;;4.22;;
30378;SDS011;17168;49.164;9.060;2024-01-07T14:07:58;8.75;;;3.95;;
30378;SDS011;17168;49.164;9.060;2024-01-07T14:10:30;6.05;;;3.50;;
30378;SDS011;17168;49.164;9.060;2024-01-07T14:13:06;6.38;;;3.97;;
30378;SDS011;17168;49.164;9.060;2024-01-07T14:15:39;6.63;;;3.40;;
30378;SDS011;17168;49.164;9.060;2024-01-07T14:18:11;6.07;;;3.33;;
30378;SDS011;17168;49.164;9.060;2024-01-07T14:20:47;7.85;;;4.10;;
30378;SDS011;17168;49.164;9.060;2024-01-07T14:23:19;9.35;;;5.15;;
30378;SDS011;17168;49.164;9.060;2024-01-07T14:25:52;7.38;;;4.22;;
30378;SDS011;17168;49.164;9.060;2024-01-07T14:28:26;8.18;;;3.97;;
30378;SDS011;17168;49.164;9.060;2024-01-07T14:30:59;6.43;;;3.53;;
30378;SDS011;17168;49.164;9.060;2024-01-07T14:33:31;7.20;;;3.70;;
30378;SDS011;17168;49.164;9.060;2024-01-07T14:36:04;7.63;;;3.90;;
30378;SDS011;17168;49.164;9.060;2024-01-07T14:38:36;6.53;;;3.25;;
30378;SDS011;17168;49.164;9.060;2024-01-07T14:41:08;7.55;;;3.60;;
30378;SDS011;17168;49.164;9.060;2024-01-07T14:43:43;6.32;;;3.92;;
30378;SDS011;17168;49.164;9.060;2024-01-07T14:46:16;8.30;;;4.13;;
30378;SDS011;17168;49.164;9.060;2024-01-07T14:48:48;7.80;;;4.25;;
30378;SDS011;17168;49.164;9.060;2024-01-07T14:51:20;4.72;;;2.90;;
30378;SDS011;17168;49.164;9.060;2024-01-07T14:53:52;6.20;;;3.22;;
30378;SDS011;17168;49.164;9.060;2024-01-07T14:56:25;6.40;;;3.38;;
30378;SDS011;17168;49.164;9.060;2024-01-07T14:59:00;9.05;;;4.75;;
30378;SDS011;17168;49.164;9.060;2024-01-07T15:01:32;6.60;;;3.47;;
30378;SDS011;17168;49.164;9.060;2024-01-07T15:04:05;6.53;;;3.17;;
30378;SDS011;17168;49.164;9.060;2024-01-07T15:06:40;7.15;;;3.35;;
30378;SDS011;17168;49.164;9.060;2024-01-07T15:09:13;6.75;;;3.55;;
30378;SDS011;17168;49.164;9.060;2024-01-07T15:11:46;6.85;;;3.60;;
30378;SDS011;17168;49.164;9.060;2024-01-07T15:14:23;7.43;;;3.65;;
30378;SDS011;17168;49.164;9.060;2024-01-07T15:16:55;7.53;;;3.83;;
30378;SDS011;17168;49.164;9.060;2024-01-07T15:19:28;6.75;;;3.05;;
30378;SDS011;17168;49.164;9.060;2024-01-07T15:22:01;5.85;;;2.88;;
30378;SDS011;17168;49.164;9.060;2024-01-07T15:24:34;6.25;;;3.58;;
30378;SDS011;17168;49.164;9.060;2024-01-07T15:27:07;5.50;;;3.25;;